Weather at Qassar Bu Sheyarrah Heliport

Public forecast

Using degrees Celsius for public forecast. Weather courtesy of forecast.io.

Closest aviation weather report (METAR) to Qassar Bu Sheyarrah Heliport

Closest report is Al Bateen Executive Airport, 6.7 nm (12.5 km) ENE.

2024/06/16 12:00 (retrieved 12 minutes ago)

OMAD 161200Z 35009KT CAVOK 39/26 Q0998 NOSIG

Closest aviation forecast (TAF) to Qassar Bu Sheyarrah Heliport

Closest forecast is Al Bateen Executive Airport, 6.7 nm (12.5 km) ENE.

2024/06/16 12:00 (retrieved 12 minutes ago)

TAF OMAD 161100Z 1612/1718 34014KT 8000 NSC BECMG 1617/1619 04006KT BECMG 1703/1705 14007KT BECMG 1709/1711 34014KT BECMG 1716/1718 04006KT